DW6226 Weather Reports


Display with metric or nautical units.
time (UTC)temp
F
wind
direction
speed
MPH
gust
MPH
rain 1hr
in
rain 24hr
in
rain mn
in
humidity
%
barometer
mb
20190223143003 14 69 0.0 0.0 0.00 0.00 0.00 91 1022.3
20190223142004 14 69 0.0 0.0 0.00 0.00 0.00 91 1022.0
20190223135003 13 69 0.0 0.0 0.00 0.00 0.00 89 1020.9
20190223134024 14 69 0.0 0.0 0.00 0.00 0.00 89 1020.5
20190223132009 16 69 0.0 0.0 0.00 0.00 0.00 90 1020.1
20190223123957 16 39 0.0 0.0 0.00 0.00 0.00 90 1019.8
20190223121006 17 39 0.0 0.0 0.00 0.00 0.00 90 1019.1
20190223120007 17 34 0.0 0.0 0.00 0.00 0.00 90 1018.7
20190223115006 17 34 0.0 0.0 0.00 0.00 0.00 90 1018.4
20190223111002 17 37 0.0 0.0 0.00 0.00 0.00 91 1017.2
20190223105014 18 43 0.0 0.0 0.00 0.00 0.00 91 1016.6
20190223104005 18 44 0.0 0.0 0.00 0.00 0.00 90 1016.4
20190223102955 18 43 0.0 0.0 0.00 0.00 0.00 91 1016.2
20190223102002 18 54 0.0 0.0 0.00 0.00 0.00 90 1015.9
20190223101014 19 41 0.0 0.0 0.00 0.00 0.00 91 1015.7
20190223100006 19 41 0.0 0.0 0.00 0.00 0.00 91 1015.5
20190223094005 20 314 0.0 0.0 0.00 0.00 0.00 91 1015.2
20190223092005 20 66 0.0 0.0 0.00 0.00 0.00 92 1014.6
20190223091008 21 13 0.0 0.0 0.00 0.00 0.00 92 1014.4
20190223090006 21 170 0.0 0.0 0.00 0.00 0.00 92 1014.1
20190223082959 21 170 0.0 0.0 0.00 0.00 0.00 92 1013.8
20190223081957 21 171 0.0 0.0 0.00 0.00 0.00 92 1013.7
20190223080955 21 170 0.0 0.0 0.00 0.00 0.00 92 1013.7
20190223074950 21 171 0.0 0.0 0.00 0.00 0.00 92 1013.4
20190223074000 21 171 0.0 0.0 0.00 0.00 0.00 92 1013.3
20190223073001 21 171 0.0 0.0 0.00 0.00 0.00 92 1013.0
20190223071000 21 170 0.0 0.0 0.00 0.00 0.00 92 1013.0
20190223065959 21 170 0.0 0.0 0.00 0.00 0.02 92 1012.6
20190223064000 21 165 0.0 0.0 0.00 0.00 0.02 92 1012.4
20190223063009 21 212 1.0 0.0 0.00 0.00 0.02 92 1012.4
20190223062010 21 109 1.0 0.0 0.00 0.00 0.02 92 1012.2
20190223060011 21 41 2.0 0.0 0.00 0.00 0.02 91 1011.3
20190223054010 22 311 4.0 0.0 0.00 0.00 0.02 91 1012.1
20190223051010 22 47 3.0 0.0 0.00 0.00 0.02 91 1012.1
20190223050025 22 26 2.0 0.0 0.00 0.00 0.02 91 1011.8
20190223045016 22 46 3.0 0.0 0.00 0.00 0.02 91 1011.7
20190223041008 23 60 2.0 0.0 0.00 0.00 0.02 91 1010.3
20190223040013 23 47 1.0 0.0 0.00 0.00 0.02 91 1010.0
20190223032000 24 97 0.0 0.0 0.00 0.00 0.02 91 1010.3
20190223030956 24 98 0.0 0.0 0.00 0.00 0.02 91 1010.2
20190223025014 24 44 0.0 0.0 0.00 0.00 0.02 91 1009.9
20190223023006 24 62 1.0 0.0 0.00 0.00 0.02 91 1009.5
20190223022010 24 48 0.0 0.0 0.00 0.00 0.02 91 1009.7
20190223021010 24 50 3.0 0.0 0.00 0.00 0.02 91 1009.7
20190223020000 24 43 3.0 0.0 0.00 0.00 0.02 91 1010.0
20190223015000 24 41 1.0 0.0 0.00 0.00 0.02 91 1010.0
20190223013006 24 63 0.0 0.0 0.00 0.00 0.02 91 1009.4
20190223005958 25 59 0.0 0.0 0.00 0.00 0.02 90 1009.1
20190223005001 25 49 0.0 0.0 0.00 0.00 0.02 89 1009.0
20190223003950 25 60 0.0 0.0 0.00 0.00 0.02 89 1008.8
20190223003201 26 60 0.0 0.0 0.00 0.00 0.02 88 1008.7
20190223002208 26 61 0.0 0.0 0.00 0.00 0.02 88 1008.5
20190223001205 26 63 0.0 0.0 0.00 0.00 0.02 87 1008.4
20190223000206 27 40 0.0 0.0 0.00 0.00 0.02 87 1008.1
20190222233208 26 40 0.0 0.0 0.00 0.00 0.02 88 1008.1
20190222231205 26 34 1.0 0.0 0.00 0.00 0.02 88 1008.0
20190222225220 26 47 3.0 0.0 0.00 0.00 0.02 88 1007.5
20190222224216 27 47 5.0 0.0 0.00 0.00 0.02 87 1007.7
20190222223205 27 56 2.0 0.0 0.00 0.00 0.02 87 1007.6
20190222221213 27 328 3.0 0.0 0.00 0.00 0.02 87 1007.5
20190222220208 28 14 4.0 0.0 0.00 0.00 0.02 87 1007.2
20190222215206 28 53 2.0 0.0 0.00 0.00 0.02 86 1007.1
20190222214221 29 34 4.0 0.0 0.00 0.00 0.02 86 1007.0
20190222213215 29 311 1.0 0.0 0.00 0.00 0.02 87 1007.0
20190222212215 28 47 0.0 0.0 0.00 0.00 0.02 87 1006.9
20190222205206 27 46 2.0 0.0 0.00 0.00 0.02 89 1006.8
20190222203210 28 53 3.0 0.0 0.00 0.00 0.02 85 1007.0
20190222202215 30 47 4.0 0.0 0.00 0.00 0.01 84 1006.9
20190222201202 31 274 1.0 0.0 0.00 0.00 0.01 83 1006.8
20190222193200 34 318 0.0 0.0 0.00 0.00 0.00 76 1006.9
20190222192203 34 317 0.0 0.0 0.00 0.00 0.00 75 1007.0
20190222191217 34 318 0.0 0.0 0.00 0.00 0.00 78 1007.3
20190222183212 31 231 0.0 0.0 0.00 0.00 0.00 81 1007.9
20190222182211 30 229 0.0 0.0 0.00 0.00 0.00 81 1007.8
20190222174212 29 255 0.0 0.0 0.00 0.00 0.00 83 1008.1
20190222172214 29 243 0.0 0.0 0.00 0.00 0.00 83 1008.5
20190222170200 27 223 1.0 0.0 0.00 0.00 0.00 87 1008.6
20190222165213 26 153 2.0 0.0 0.00 0.00 0.00 89 1008.8
20190222164200 26 83 0.0 0.0 0.00 0.00 0.00 88 1008.7
20190222163213 26 79 0.0 0.0 0.00 0.00 0.00 88 1008.8
20190222162211 26 88 0.0 0.0 0.00 0.00 0.00 87 1008.9
20190222161209 26 240 0.0 0.0 0.00 0.00 0.00 87 1008.9
20190222154221 26 229 0.0 0.0 0.00 0.00 0.00 87 1008.7
20190222152209 25 356 0.0 0.0 0.00 0.00 0.00 89 1008.0
20190222151208 24 32 1.0 0.0 0.00 0.00 0.00 90 1008.3
20190222145214 24 204 0.0 0.0 0.00 0.00 0.00 92 1008.2
20190222144209 23 204 0.0 0.0 0.00 0.00 0.00 92 1008.3